Airfield :
LOGIN :

Register | Disclaimer

   EN    FR    IT 

 










Legend :    VFR   Marginal VFR   IFR   Intensive IFR   Very Intensive IFR
Visi :
Ceiling :
>= 8 km
>= 3000ft
5 to 8 km
1000 to 3000 ft
1500m to 5 km
500 to 1000 ft
800 to 1500m
200 to 500 ft
< 800m
< 200 ft
Symbols :   Thunderstorms  Fog  Heavy snow  Heavy precipitations  Wind > 20 kt
SIGMETs :     Misc.  Thunderstorms  Icing  Turbulence  Mountain Waves  Volcanic Ashes







- Airport Elevation : 20 ft


EBFN - Koksijde

CURRENT METAR :
  • 161725Z AUTO 29007KT 9999 OVC054/// 20/15 Q1014 BLU

EXPIRED METARs :
  • 161655Z AUTO 28007KT 9999 FEW069/// SCT130/// 20/15 Q1014 BLU
  • 161625Z AUTO 29008KT 9999 FEW220/// 21/16 Q1014 BLU
  • 161555Z AUTO 28007KT 9999 FEW120/// 22/14 Q1014 BLU
  • 161525Z AUTO 26011KT 9999 BKN055/// 22/14 Q1014 BLU
  • 161455Z AUTO 28016KT 9999 SCT042/// 21/15 Q1015 BLU
  • 161438Z 28016KT 9999 FEW036 SCT050 22/16 Q1015 BLU FCST CANCEL

TAF TAF EBFN
Valid from the 16 at 13:00 until the 16 at 22:00 UTC


161141Z 1613/1622 26015G25KT 9999 BKN030
TEMPO 1614/1622 4000 -RA -SHRA SCT024TCU
PROB30
TEMPO 1614/1622 28020G30KT SHRA TSRA SCT010CB
TEMPO 1616/1622 28010KT 2000 +SHRA +RA SCT003
BECMG 1620/1622 26007KT
No reported NOTAMs for that airfield.



MET'MAP, your aeronautical weather chart ! - Copyright ORBIFLY December 2007 - Disclaimer

ORBIFLY MET'MAP TEAM :

Programming & Development : Alexandra Zaïnal
Concept & Development : Baudouin d'Aumeries
Co-Development & Prog : Marc-Olivier Méhu
Technical & hardware support : Manuel Goepfert

Contact : metmap@orbifly.com




SOURCES & CREDITS :

   NOAA